Time;durP1;ratioP1;P1;durP2;ratioP2;P2;SDS_P1;SDS_P2;PMS_P1;PMS_P2;Temp;Humidity;BMP_temperature;BMP_pressure;BME280_temperature;BME280_humidity;BME280_pressure;Samples;Min_cycle;Max_cycle;Signal;HPM_P1;HPM_P2
2022/08/01 00:02:12;;;;;;;12.15;7.97;;;;;;;;;;5064173;28;20191;-66
2022/08/01 00:04:38;;;;;;;14.00;7.90;;;;;;;;;;5050438;28;20192;-66
2022/08/01 00:07:03;;;;;;;13.60;8.02;;;;;;;;;;5062255;28;20195;-66
2022/08/01 00:09:29;;;;;;;13.10;7.85;;;;;;;;;;5068035;28;20185;-66
2022/08/01 00:11:54;;;;;;;12.25;7.53;;;;;;;;;;5056346;28;20219;-66
2022/08/01 00:14:20;;;;;;;11.63;7.35;;;;;;;;;;5060860;28;20706;-66
2022/08/01 00:16:45;;;;;;;10.18;7.53;;;;;;;;;;5055224;28;20188;-66
2022/08/01 00:19:10;;;;;;;10.18;6.35;;;;;;;;;;5059836;28;20173;-66
2022/08/01 00:21:36;;;;;;;10.90;7.18;;;;;;;;;;5057264;28;20598;-66
2022/08/01 00:24:01;;;;;;;12.15;7.50;;;;;;;;;;5059152;28;20194;-66
2022/08/01 00:26:26;;;;;;;11.75;6.97;;;;;;;;;;5058281;28;20260;-66
2022/08/01 00:28:52;;;;;;;15.10;6.07;;;;;;;;;;5054075;28;20188;-66
2022/08/01 00:31:17;;;;;;;12.43;6.72;;;;;;;;;;5065519;28;20208;-66
2022/08/01 00:33:42;;;;;;;10.73;6.82;;;;;;;;;;5064814;28;20177;-66
2022/08/01 00:36:08;;;;;;;10.32;6.78;;;;;;;;;;5066842;28;20177;-66
2022/08/01 00:38:33;;;;;;;11.50;6.95;;;;;;;;;;5068965;28;20187;-66
2022/08/01 00:40:58;;;;;;;10.75;6.80;;;;;;;;;;5049478;28;20226;-67
2022/08/01 00:43:24;;;;;;;10.50;6.63;;;;;;;;;;5054392;28;20699;-67
2022/08/01 00:45:49;;;;;;;11.70;7.55;;;;;;;;;;5065108;28;20180;-66
2022/08/01 00:48:14;;;;;;;10.80;6.30;;;;;;;;;;5058295;28;20715;-66
2022/08/01 00:50:40;;;;;;;13.23;7.40;;;;;;;;;;5056361;28;20181;-66
2022/08/01 00:53:05;;;;;;;11.82;7.05;;;;;;;;;;5051225;28;20231;-66
2022/08/01 00:55:31;;;;;;;13.18;7.68;;;;;;;;;;5063243;28;20684;-67
2022/08/01 00:57:58;;;;;;;10.93;7.05;;;;;;;;;;5056797;28;20260;-67
2022/08/01 01:00:25;;;;;;;13.20;7.93;;;;;;;;;;5060127;28;20192;-67
2022/08/01 01:02:50;;;;;;;10.98;7.20;;;;;;;;;;5053707;28;20189;-68
2022/08/01 01:05:16;;;;;;;13.15;7.63;;;;;;;;;;5063597;28;20181;-68
2022/08/01 01:08:01;;;;;;;12.32;7.30;;;;;;;;;;5053628;28;20178;-69
2022/08/01 01:10:47;;;;;;;12.73;8.45;;;;;;;;;;5068994;28;20188;-70
2022/08/01 01:13:24;;;;;;;11.88;7.43;;;;;;;;;;5054320;28;20176;-72
2022/08/01 01:16:11;;;;;;;13.23;7.43;;;;;;;;;;5055429;28;20233;-72
2022/08/01 01:18:47;;;;;;;12.25;7.70;;;;;;;;;;5051971;28;20226;-70
2022/08/01 01:21:18;;;;;;;14.77;8.00;;;;;;;;;;5050795;28;20276;-70
2022/08/01 01:24:31;;;;;;;10.60;7.25;;;;;;;;;;5059124;28;20205;-72
2022/08/01 01:27:08;;;;;;;11.55;7.47;;;;;;;;;;5050633;28;20259;-72
2022/08/01 01:29:48;;;;;;;11.52;7.65;;;;;;;;;;5068625;28;20229;-71
2022/08/01 01:32:22;;;;;;;8.98;5.75;;;;;;;;;;5053194;28;20212;-72
2022/08/01 01:34:50;;;;;;;9.85;5.78;;;;;;;;;;5048477;28;20238;-71
2022/08/01 01:37:18;;;;;;;6.10;4.80;;;;;;;;;;5058852;28;20208;-70
2022/08/01 01:39:47;;;;;;;6.93;4.50;;;;;;;;;;5051139;28;20178;-70
2022/08/01 01:42:14;;;;;;;5.68;3.97;;;;;;;;;;5057804;28;20191;-67
2022/08/01 01:44:43;;;;;;;5.32;4.20;;;;;;;;;;5062392;28;20672;-67
2022/08/01 01:47:09;;;;;;;5.55;4.80;;;;;;;;;;5053194;28;20189;-67
2022/08/01 01:49:34;;;;;;;6.10;4.65;;;;;;;;;;5056300;28;20200;-67
2022/08/01 01:52:02;;;;;;;8.25;5.07;;;;;;;;;;5050791;28;20189;-66
2022/08/01 01:54:34;;;;;;;6.75;4.03;;;;;;;;;;5059939;28;20211;-65
2022/08/01 01:57:03;;;;;;;6.53;4.95;;;;;;;;;;5058252;28;20177;-66
2022/08/01 01:59:31;;;;;;;6.63;5.03;;;;;;;;;;5054762;28;20191;-66
2022/08/01 02:01:59;;;;;;;6.22;4.82;;;;;;;;;;5052945;28;20192;-65
2022/08/01 02:04:27;;;;;;;6.05;4.97;;;;;;;;;;5048587;28;20178;-66
2022/08/01 02:06:54;;;;;;;8.30;5.63;;;;;;;;;;5048120;28;20185;-66
2022/08/01 02:09:21;;;;;;;8.93;5.70;;;;;;;;;;5052658;28;20186;-66
2022/08/01 02:11:48;;;;;;;7.88;5.45;;;;;;;;;;5050916;28;20185;-65
2022/08/01 02:14:15;;;;;;;9.75;7.03;;;;;;;;;;5053145;28;20192;-65
2022/08/01 02:16:44;;;;;;;7.97;6.10;;;;;;;;;;5051816;28;20220;-65
2022/08/01 02:19:10;;;;;;;8.85;6.57;;;;;;;;;;5054250;28;20208;-65
2022/08/01 02:21:42;;;;;;;8.60;6.25;;;;;;;;;;5052286;28;20219;-64
2022/08/01 02:24:18;;;;;;;10.55;6.85;;;;;;;;;;5054654;28;20180;-65
2022/08/01 02:26:48;;;;;;;6.95;5.75;;;;;;;;;;5055513;28;20228;-65
2022/08/01 02:29:21;;;;;;;8.73;6.03;;;;;;;;;;5054492;28;20187;-65
2022/08/01 02:31:48;;;;;;;7.97;5.45;;;;;;;;;;5048485;28;20259;-65
2022/08/01 02:34:17;;;;;;;9.27;6.22;;;;;;;;;;5046448;28;20224;-65
2022/08/01 02:36:45;;;;;;;9.13;6.15;;;;;;;;;;5061742;28;20659;-65
2022/08/01 02:39:14;;;;;;;10.43;6.15;;;;;;;;;;5058907;28;20518;-65
2022/08/01 02:41:46;;;;;;;8.48;5.88;;;;;;;;;;5064056;28;20192;-65
2022/08/01 02:44:21;;;;;;;7.10;6.10;;;;;;;;;;5051729;28;20192;-65
2022/08/01 02:46:54;;;;;;;8.50;6.20;;;;;;;;;;5058298;28;20745;-65
2022/08/01 02:49:21;;;;;;;8.85;6.63;;;;;;;;;;5054619;28;20192;-65
2022/08/01 02:51:48;;;;;;;7.80;5.78;;;;;;;;;;5057645;28;20200;-65
2022/08/01 02:54:16;;;;;;;7.25;6.00;;;;;;;;;;5066618;28;20716;-65
2022/08/01 02:56:42;;;;;;;11.82;6.60;;;;;;;;;;5060560;28;20223;-65
2022/08/01 02:59:12;;;;;;;8.13;6.38;;;;;;;;;;5062945;28;20185;-65
2022/08/01 03:01:39;;;;;;;10.32;6.25;;;;;;;;;;5053127;28;20700;-65
2022/08/01 03:04:06;;;;;;;7.38;6.30;;;;;;;;;;5065036;28;20424;-65
2022/08/01 03:06:33;;;;;;;7.63;6.13;;;;;;;;;;5056725;28;20184;-65
2022/08/01 03:09:03;;;;;;;7.63;6.07;;;;;;;;;;5062244;28;20181;-65
2022/08/01 03:11:30;;;;;;;9.55;5.95;;;;;;;;;;5055134;28;20185;-66
2022/08/01 03:13:58;;;;;;;8.80;6.25;;;;;;;;;;5056295;28;20173;-65
2022/08/01 03:16:26;;;;;;;7.90;5.95;;;;;;;;;;5055550;28;20180;-65
2022/08/01 03:18:54;;;;;;;10.90;6.43;;;;;;;;;;5060845;28;20185;-65
2022/08/01 03:21:21;;;;;;;9.43;5.85;;;;;;;;;;5067562;28;20181;-65
2022/08/01 03:23:49;;;;;;;10.98;6.85;;;;;;;;;;5065060;28;20185;-65
2022/08/01 03:26:15;;;;;;;11.52;6.57;;;;;;;;;;5060659;28;20529;-65
2022/08/01 03:28:42;;;;;;;9.00;5.97;;;;;;;;;;5050560;28;20178;-65
2022/08/01 03:31:09;;;;;;;8.98;6.13;;;;;;;;;;5056943;28;20215;-66
2022/08/01 03:33:35;;;;;;;7.95;6.45;;;;;;;;;;5053623;28;20541;-66
2022/08/01 03:36:02;;;;;;;9.15;6.78;;;;;;;;;;5055902;28;20287;-66
2022/08/01 03:38:32;;;;;;;7.57;6.22;;;;;;;;;;5058472;28;20184;-66
2022/08/01 03:41:04;;;;;;;8.50;6.43;;;;;;;;;;5057596;28;20196;-66
2022/08/01 03:43:38;;;;;;;9.93;6.78;;;;;;;;;;5056027;28;20218;-65
2022/08/01 03:46:09;;;;;;;9.85;6.78;;;;;;;;;;5051729;28;20934;-66
2022/08/01 03:48:39;;;;;;;8.55;7.22;;;;;;;;;;5051195;28;20641;-65
2022/08/01 03:51:06;;;;;;;10.82;7.45;;;;;;;;;;5055604;28;20185;-66
2022/08/01 03:53:33;;;;;;;11.18;7.93;;;;;;;;;;5056871;28;20188;-66
2022/08/01 03:56:00;;;;;;;11.45;7.40;;;;;;;;;;5061942;28;20209;-66
2022/08/01 03:58:27;;;;;;;10.07;7.15;;;;;;;;;;5053919;28;20201;-67
2022/08/01 04:00:53;;;;;;;9.80;7.20;;;;;;;;;;5050902;28;20548;-65
2022/08/01 04:03:19;;;;;;;9.63;7.45;;;;;;;;;;5052542;28;20213;-65
2022/08/01 04:05:45;;;;;;;10.27;7.60;;;;;;;;;;5059937;28;20219;-66
2022/08/01 04:08:10;;;;;;;15.85;8.60;;;;;;;;;;5054947;28;20216;-67
2022/08/01 04:10:37;;;;;;;12.43;8.52;;;;;;;;;;5069973;28;20189;-66
2022/08/01 04:13:02;;;;;;;11.57;8.52;;;;;;;;;;5059216;28;20852;-65
2022/08/01 04:15:28;;;;;;;10.75;8.38;;;;;;;;;;5064050;28;20184;-65
2022/08/01 04:17:53;;;;;;;11.60;8.55;;;;;;;;;;5052798;28;20178;-66
2022/08/01 04:20:19;;;;;;;10.77;8.05;;;;;;;;;;5060772;28;20653;-65
2022/08/01 04:22:45;;;;;;;10.82;7.97;;;;;;;;;;5061768;28;20193;-65
2022/08/01 04:25:21;;;;;;;9.18;7.72;;;;;;;;;;5063934;28;20308;-66
2022/08/01 04:27:49;;;;;;;9.73;7.82;;;;;;;;;;5053128;28;20193;-66
2022/08/01 04:30:16;;;;;;;10.40;7.22;;;;;;;;;;5055105;28;20197;-67
2022/08/01 04:32:44;;;;;;;12.68;8.10;;;;;;;;;;5062746;28;20632;-66
2022/08/01 04:35:13;;;;;;;10.68;8.18;;;;;;;;;;5055363;28;20210;-67
2022/08/01 04:37:40;;;;;;;9.60;7.22;;;;;;;;;;5050453;28;20181;-67
2022/08/01 04:40:08;;;;;;;8.15;6.75;;;;;;;;;;5055863;28;20211;-67
2022/08/01 04:42:33;;;;;;;8.38;6.80;;;;;;;;;;5058310;28;20188;-67
2022/08/01 04:44:59;;;;;;;7.22;6.22;;;;;;;;;;5061576;28;20531;-67
2022/08/01 04:47:25;;;;;;;7.72;6.65;;;;;;;;;;5060584;28;20191;-67
2022/08/01 04:49:51;;;;;;;7.65;5.97;;;;;;;;;;5057376;28;20513;-68
2022/08/01 04:52:17;;;;;;;9.25;6.28;;;;;;;;;;5061801;28;20506;-69
2022/08/01 04:54:43;;;;;;;7.43;5.95;;;;;;;;;;5051918;28;20729;-70
2022/08/01 04:57:09;;;;;;;12.82;5.57;;;;;;;;;;5058552;28;20185;-69
2022/08/01 04:59:40;;;;;;;8.15;6.47;;;;;;;;;;5068490;28;20187;-69
2022/08/01 05:02:13;;;;;;;10.32;6.50;;;;;;;;;;5055139;28;20189;-70
2022/08/01 05:04:40;;;;;;;9.02;6.80;;;;;;;;;;5061079;28;20264;-68
2022/08/01 05:07:06;;;;;;;7.38;6.07;;;;;;;;;;5048989;28;20178;-68
2022/08/01 05:09:31;;;;;;;7.97;6.25;;;;;;;;;;5050420;28;20702;-68
2022/08/01 05:11:58;;;;;;;8.10;6.93;;;;;;;;;;5048995;28;20189;-67
2022/08/01 05:14:31;;;;;;;10.25;6.47;;;;;;;;;;5054493;28;20371;-67
2022/08/01 05:16:56;;;;;;;9.52;6.82;;;;;;;;;;5052246;28;20644;-67
2022/08/01 05:19:22;;;;;;;7.57;6.53;;;;;;;;;;5056704;28;20192;-68
2022/08/01 05:21:47;;;;;;;9.48;6.70;;;;;;;;;;5054995;28;20549;-68
2022/08/01 05:24:13;;;;;;;8.63;6.82;;;;;;;;;;5057694;28;20173;-70
2022/08/01 05:26:39;;;;;;;9.50;7.00;;;;;;;;;;5060180;28;20231;-70
2022/08/01 05:29:04;;;;;;;9.18;7.15;;;;;;;;;;5054348;28;20177;-71
2022/08/01 05:31:30;;;;;;;8.57;7.03;;;;;;;;;;5054102;28;20197;-71
2022/08/01 05:33:55;;;;;;;11.10;7.10;;;;;;;;;;5055126;28;20197;-71
2022/08/01 05:36:20;;;;;;;8.13;7.13;;;;;;;;;;5053764;28;20186;-70
2022/08/01 05:38:46;;;;;;;8.60;6.40;;;;;;;;;;5047189;28;20247;-70
2022/08/01 05:41:11;;;;;;;10.52;7.03;;;;;;;;;;5059263;28;20204;-70
2022/08/01 05:43:37;;;;;;;10.85;6.75;;;;;;;;;;5052225;28;20192;-69
2022/08/01 05:46:02;;;;;;;9.90;6.50;;;;;;;;;;5051607;28;20177;-68
2022/08/01 05:48:27;;;;;;;10.20;6.32;;;;;;;;;;5060734;28;20217;-68
2022/08/01 05:50:54;;;;;;;10.25;6.20;;;;;;;;;;5052059;28;20438;-67
2022/08/01 05:53:19;;;;;;;8.13;6.30;;;;;;;;;;5055620;28;20185;-67
2022/08/01 05:55:44;;;;;;;7.88;6.47;;;;;;;;;;5059915;28;20231;-67
2022/08/01 05:58:10;;;;;;;9.85;6.60;;;;;;;;;;5054377;28;20212;-67
2022/08/01 06:00:35;;;;;;;10.68;6.78;;;;;;;;;;5060988;28;20208;-67
2022/08/01 06:03:00;;;;;;;14.23;6.97;;;;;;;;;;5053750;28;20181;-67
2022/08/01 06:05:26;;;;;;;8.10;5.80;;;;;;;;;;5051263;28;20245;-67
2022/08/01 06:07:51;;;;;;;8.43;6.85;;;;;;;;;;5053255;28;20177;-67
2022/08/01 06:10:17;;;;;;;7.50;6.20;;;;;;;;;;5050627;28;20177;-67
2022/08/01 06:12:42;;;;;;;8.00;6.07;;;;;;;;;;5049704;28;20185;-67
2022/08/01 06:15:08;;;;;;;8.27;6.35;;;;;;;;;;5052676;28;20193;-66
2022/08/01 06:17:34;;;;;;;8.07;6.10;;;;;;;;;;5050233;28;20189;-67
2022/08/01 06:19:59;;;;;;;11.52;5.88;;;;;;;;;;5048878;28;20181;-67
2022/08/01 06:22:25;;;;;;;9.20;6.38;;;;;;;;;;5044863;28;20564;-66
2022/08/01 06:24:50;;;;;;;6.85;5.85;;;;;;;;;;5044622;28;20232;-66
2022/08/01 06:27:16;;;;;;;9.18;5.93;;;;;;;;;;5045872;28;20413;-67
2022/08/01 06:29:42;;;;;;;9.20;5.68;;;;;;;;;;5054385;28;20517;-67
2022/08/01 06:32:09;;;;;;;6.25;4.53;;;;;;;;;;5047680;28;20229;-67
2022/08/01 06:34:34;;;;;;;6.82;4.68;;;;;;;;;;5046040;28;20272;-68
2022/08/01 06:37:00;;;;;;;8.15;4.63;;;;;;;;;;5054018;28;20196;-68
2022/08/01 06:39:25;;;;;;;6.85;3.75;;;;;;;;;;5056977;28;20184;-67
2022/08/01 06:41:50;;;;;;;6.22;3.53;;;;;;;;;;5047221;28;20189;-68
2022/08/01 06:44:16;;;;;;;8.30;3.67;;;;;;;;;;5054701;28;20187;-67
2022/08/01 06:46:41;;;;;;;5.82;3.42;;;;;;;;;;5059691;28;20723;-67
2022/08/01 06:49:06;;;;;;;7.70;3.20;;;;;;;;;;5049609;28;20219;-67
2022/08/01 06:51:32;;;;;;;6.82;2.65;;;;;;;;;;5048875;28;20185;-66
2022/08/01 06:53:57;;;;;;;5.78;3.05;;;;;;;;;;5046790;28;20515;-67
2022/08/01 06:56:22;;;;;;;6.32;2.95;;;;;;;;;;5051000;28;20671;-67
2022/08/01 06:58:50;;;;;;;4.93;2.63;;;;;;;;;;5047378;28;20196;-67
2022/08/01 07:01:15;;;;;;;5.50;2.90;;;;;;;;;;5050704;28;20252;-67
2022/08/01 07:03:40;;;;;;;5.50;2.80;;;;;;;;;;5045066;28;20272;-67
2022/08/01 07:06:05;;;;;;;8.55;3.10;;;;;;;;;;5049795;28;20189;-67
2022/08/01 07:08:31;;;;;;;14.02;4.30;;;;;;;;;;5049929;28;20180;-67
2022/08/01 07:10:59;;;;;;;5.78;2.42;;;;;;;;;;5053679;28;20197;-68
2022/08/01 07:13:27;;;;;;;5.57;2.75;;;;;;;;;;5052916;28;20186;-67
2022/08/01 07:15:52;;;;;;;6.70;2.92;;;;;;;;;;4349767;28;10000814;-67
2022/08/01 07:18:18;;;;;;;2.80;2.30;;;;;;;;;;5054302;28;20717;-67
2022/08/01 07:20:45;;;;;;;3.92;2.45;;;;;;;;;;5055823;28;20238;-69
2022/08/01 07:23:13;;;;;;;5.55;2.95;;;;;;;;;;5058239;28;20196;-67
2022/08/01 07:25:39;;;;;;;4.47;2.80;;;;;;;;;;5057120;28;20229;-69
2022/08/01 07:28:04;;;;;;;5.82;2.75;;;;;;;;;;5045648;28;20271;-67
2022/08/01 07:30:30;;;;;;;8.60;3.03;;;;;;;;;;5057619;28;20182;-68
2022/08/01 07:32:55;;;;;;;5.43;2.80;;;;;;;;;;5056074;28;20297;-69
2022/08/01 07:35:21;;;;;;;9.40;2.85;;;;;;;;;;5057392;28;20212;-68
2022/08/01 07:37:47;;;;;;;10.50;3.20;;;;;;;;;;5054019;28;20185;-70
2022/08/01 07:40:12;;;;;;;7.72;3.08;;;;;;;;;;5059228;28;20173;-69
2022/08/01 07:42:37;;;;;;;8.70;3.70;;;;;;;;;;5063866;28;20666;-70
2022/08/01 07:45:03;;;;;;;10.38;4.05;;;;;;;;;;5062165;28;20181;-70
2022/08/01 07:47:29;;;;;;;9.68;3.50;;;;;;;;;;5059330;28;20275;-70
2022/08/01 07:50:05;;;;;;;9.75;3.30;;;;;;;;;;5057330;28;20303;-70
2022/08/01 07:52:31;;;;;;;10.85;3.70;;;;;;;;;;5053985;28;20267;-68
2022/08/01 07:54:57;;;;;;;11.07;3.63;;;;;;;;;;5063712;28;20662;-68
2022/08/01 07:57:23;;;;;;;9.65;3.60;;;;;;;;;;5060448;28;20572;-68
2022/08/01 07:59:49;;;;;;;5.18;2.70;;;;;;;;;;5061464;28;20192;-68
2022/08/01 08:02:15;;;;;;;9.88;3.60;;;;;;;;;;5060382;28;20189;-68
2022/08/01 08:04:41;;;;;;;10.10;3.35;;;;;;;;;;5062674;28;20177;-68
2022/08/01 08:07:06;;;;;;;10.63;3.28;;;;;;;;;;5048521;28;20280;-69
2022/08/01 08:09:31;;;;;;;8.90;3.78;;;;;;;;;;5062985;28;20181;-69
2022/08/01 08:11:57;;;;;;;7.00;3.17;;;;;;;;;;5052791;28;20657;-69
2022/08/01 08:14:23;;;;;;;11.45;3.40;;;;;;;;;;5055631;28;20224;-69
2022/08/01 08:16:50;;;;;;;8.25;3.10;;;;;;;;;;5051454;28;20173;-69
2022/08/01 08:19:15;;;;;;;9.05;3.45;;;;;;;;;;5055986;28;20679;-69
2022/08/01 08:21:41;;;;;;;7.28;3.17;;;;;;;;;;5049062;28;20185;-69
2022/08/01 08:24:19;;;;;;;7.78;3.15;;;;;;;;;;5052525;28;20227;-69
2022/08/01 08:26:45;;;;;;;7.90;2.97;;;;;;;;;;5051647;28;20233;-69
2022/08/01 08:29:11;;;;;;;8.13;3.45;;;;;;;;;;5049412;28;20205;-68
2022/08/01 08:31:37;;;;;;;7.90;3.25;;;;;;;;;;5053599;28;20208;-69
2022/08/01 08:34:02;;;;;;;11.98;3.50;;;;;;;;;;5049942;28;20181;-69
2022/08/01 08:36:28;;;;;;;6.95;2.83;;;;;;;;;;5050944;28;20185;-69
2022/08/01 08:38:54;;;;;;;10.68;3.42;;;;;;;;;;5049717;28;20255;-68
2022/08/01 08:41:19;;;;;;;11.55;2.72;;;;;;;;;;5047477;28;20205;-68
2022/08/01 08:43:45;;;;;;;13.27;2.60;;;;;;;;;;5049083;28;20204;-73
2022/08/01 08:46:12;;;;;;;8.63;2.92;;;;;;;;;;5048581;28;20185;-70
2022/08/01 08:48:40;;;;;;;10.85;2.50;;;;;;;;;;5050934;28;20185;-68
2022/08/01 08:51:08;;;;;;;7.07;2.10;;;;;;;;;;5052613;28;20284;-69
2022/08/01 08:53:35;;;;;;;9.88;2.45;;;;;;;;;;5049705;28;20714;-68
2022/08/01 08:56:02;;;;;;;12.02;2.78;;;;;;;;;;5049892;28;20759;-68
2022/08/01 08:58:28;;;;;;;11.38;2.72;;;;;;;;;;5053536;28;20181;-68
2022/08/01 09:00:54;;;;;;;9.02;2.60;;;;;;;;;;5048125;28;20194;-74
2022/08/01 09:03:19;;;;;;;11.02;2.90;;;;;;;;;;5049556;28;20660;-70
2022/08/01 09:05:45;;;;;;;18.17;3.10;;;;;;;;;;5061744;28;20184;-69
2022/08/01 09:08:11;;;;;;;9.25;2.13;;;;;;;;;;5055339;28;20173;-69
2022/08/01 09:10:37;;;;;;;12.52;2.88;;;;;;;;;;5056474;28;20669;-69
2022/08/01 09:13:05;;;;;;;8.43;2.33;;;;;;;;;;5051173;28;20219;-68
2022/08/01 09:15:50;;;;;;;9.00;1.67;;;;;;;;;;5048182;28;20677;-68
2022/08/01 09:18:34;;;;;;;11.55;2.05;;;;;;;;;;5047747;28;20192;-68
2022/08/01 09:21:24;;;;;;;10.60;2.17;;;;;;;;;;5048877;28;20217;-67
2022/08/01 09:23:51;;;;;;;8.95;2.03;;;;;;;;;;5043188;28;20615;-69
2022/08/01 09:26:19;;;;;;;14.15;2.53;;;;;;;;;;5048483;28;20600;-67
2022/08/01 09:28:46;;;;;;;6.75;1.92;;;;;;;;;;5058565;28;20220;-68
2022/08/01 09:31:16;;;;;;;11.52;2.33;;;;;;;;;;5051331;28;20801;-69
2022/08/01 09:34:00;;;;;;;12.45;2.40;;;;;;;;;;5050418;28;20187;-68
2022/08/01 09:36:42;;;;;;;12.38;2.42;;;;;;;;;;5049964;28;20190;-68
2022/08/01 09:39:12;;;;;;;14.10;2.90;;;;;;;;;;5049158;28;20601;-68
2022/08/01 09:41:38;;;;;;;12.35;2.50;;;;;;;;;;5050763;28;20339;-68
2022/08/01 09:44:03;;;;;;;8.60;2.35;;;;;;;;;;5048948;28;20261;-67
2022/08/01 09:46:28;;;;;;;8.48;2.40;;;;;;;;;;5052362;28;20223;-68
2022/08/01 09:48:58;;;;;;;11.15;2.13;;;;;;;;;;5047290;28;20185;-67
2022/08/01 09:51:29;;;;;;;11.00;2.00;;;;;;;;;;5050764;28;20184;-67
2022/08/01 09:53:55;;;;;;;6.43;1.48;;;;;;;;;;5052347;28;20749;-68
2022/08/01 09:56:21;;;;;;;9.70;2.00;;;;;;;;;;5047088;28;20181;-70
2022/08/01 09:58:54;;;;;;;8.27;1.75;;;;;;;;;;5049237;28;20726;-70
2022/08/01 10:01:23;;;;;;;8.65;2.15;;;;;;;;;;5051960;28;20173;-68
2022/08/01 10:04:13;;;;;;;5.00;1.40;;;;;;;;;;5053547;28;20181;-68
2022/08/01 10:06:42;;;;;;;4.85;1.48;;;;;;;;;;5055449;28;20173;-69
2022/08/01 10:09:08;;;;;;;7.90;2.10;;;;;;;;;;5052915;28;20656;-68
2022/08/01 10:11:38;;;;;;;10.02;1.85;;;;;;;;;;5057597;28;20216;-69
2022/08/01 10:14:04;;;;;;;8.80;1.60;;;;;;;;;;5048996;28;20283;-70
2022/08/01 10:16:31;;;;;;;7.38;1.55;;;;;;;;;;5047902;28;20720;-68
2022/08/01 10:18:58;;;;;;;9.25;1.60;;;;;;;;;;5049503;28;20181;-68
2022/08/01 10:21:26;;;;;;;8.07;1.70;;;;;;;;;;5048217;28;20185;-67
2022/08/01 10:23:54;;;;;;;7.53;1.73;;;;;;;;;;5048854;28;20232;-69
2022/08/01 10:26:21;;;;;;;6.15;1.73;;;;;;;;;;5047734;28;20408;-67
2022/08/01 10:28:48;;;;;;;8.45;2.13;;;;;;;;;;5055423;28;20462;-71
2022/08/01 10:31:14;;;;;;;7.50;2.03;;;;;;;;;;5057252;28;20696;-74
2022/08/01 10:33:41;;;;;;;6.80;1.50;;;;;;;;;;5059415;28;20184;-68
2022/08/01 10:36:06;;;;;;;9.93;2.67;;;;;;;;;;5063121;28;20575;-68
2022/08/01 10:38:33;;;;;;;7.57;1.77;;;;;;;;;;5055500;28;20238;-71
2022/08/01 10:41:01;;;;;;;8.32;1.55;;;;;;;;;;5054930;28;20693;-69
2022/08/01 10:43:27;;;;;;;8.55;1.70;;;;;;;;;;5053493;28;20645;-68
2022/08/01 10:45:53;;;;;;;8.23;1.77;;;;;;;;;;5049887;28;20196;-68
2022/08/01 10:48:48;;;;;;;7.18;1.52;;;;;;;;;;5053521;28;20676;-69
2022/08/01 10:51:15;;;;;;;8.20;1.85;;;;;;;;;;5052422;28;20447;-68
2022/08/01 10:53:47;;;;;;;9.77;1.85;;;;;;;;;;5047970;28;20292;-73
2022/08/01 10:56:13;;;;;;;7.68;1.58;;;;;;;;;;5050858;28;20284;-69
2022/08/01 10:58:42;;;;;;;10.20;1.70;;;;;;;;;;5048539;28;20189;-69
2022/08/01 11:01:40;;;;;;;10.27;1.75;;;;;;;;;;5047059;28;20208;-69
2022/08/01 11:04:37;;;;;;;11.30;1.85;;;;;;;;;;5009663;28;20235;-69
2022/08/01 11:07:07;;;;;;;9.18;1.50;;;;;;;;;;5053904;28;20234;-68
2022/08/01 11:09:47;;;;;;;6.88;1.88;;;;;;;;;;5052693;28;20185;-70
2022/08/01 11:12:17;;;;;;;10.77;2.03;;;;;;;;;;5064686;28;20184;-70
2022/08/01 11:15:15;;;;;;;8.35;1.65;;;;;;;;;;5066203;28;20205;-68
2022/08/01 11:17:49;;;;;;;9.95;2.00;;;;;;;;;;5016792;28;20194;-68
2022/08/01 11:20:16;;;;;;;11.85;2.35;;;;;;;;;;5050188;28;20243;-69
2022/08/01 11:23:00;;;;;;;10.40;2.67;;;;;;;;;;5062843;28;20212;-68
2022/08/01 11:25:47;;;;;;;9.75;2.20;;;;;;;;;;5062772;28;20613;-68
2022/08/01 11:28:16;;;;;;;9.63;2.15;;;;;;;;;;5042219;28;20229;-68
2022/08/01 11:30:43;;;;;;;6.85;1.73;;;;;;;;;;5053114;28;20268;-68
2022/08/01 11:33:09;;;;;;;9.40;2.05;;;;;;;;;;5062419;28;20173;-68
2022/08/01 11:35:35;;;;;;;5.88;1.50;;;;;;;;;;5063903;28;20209;-68
2022/08/01 11:38:24;;;;;;;7.88;2.03;;;;;;;;;;5060319;28;20178;-68
2022/08/01 11:41:12;;;;;;;8.40;2.13;;;;;;;;;;5049248;28;20254;-68
2022/08/01 11:43:58;;;;;;;6.43;1.60;;;;;;;;;;5064093;28;20578;-67
2022/08/01 11:47:01;;;;;;;5.80;1.55;;;;;;;;;;5058881;28;20250;-68
2022/08/01 11:49:44;;;;;;;6.05;1.73;;;;;;;;;;5064234;28;20185;-68
2022/08/01 11:52:16;;;;;;;8.10;1.98;;;;;;;;;;5062535;28;20279;-68
2022/08/01 11:54:50;;;;;;;25.67;4.50;;;;;;;;;;5050911;28;20763;-68
2022/08/01 11:57:27;;;;;;;8.27;1.70;;;;;;;;;;5058675;28;20201;-68
2022/08/01 11:59:54;;;;;;;13.80;2.30;;;;;;;;;;5058795;28;20542;-75
2022/08/01 12:02:28;;;;;;;7.53;1.80;;;;;;;;;;5054825;28;20555;-69
2022/08/01 12:04:58;;;;;;;8.10;2.20;;;;;;;;;;5057495;28;20188;-68
2022/08/01 12:07:26;;;;;;;5.88;1.77;;;;;;;;;;5053302;28;20192;-67
2022/08/01 12:10:09;;;;;;;5.22;1.60;;;;;;;;;;5055482;28;20243;-68
2022/08/01 12:12:36;;;;;;;6.22;1.52;;;;;;;;;;5059277;28;20589;-68
2022/08/01 12:15:05;;;;;;;7.80;1.95;;;;;;;;;;5053151;28;20201;-68
2022/08/01 12:17:34;;;;;;;8.77;1.60;;;;;;;;;;5062134;28;20188;-67
2022/08/01 12:20:00;;;;;;;8.15;1.95;;;;;;;;;;5063228;28;20187;-66
2022/08/01 12:22:26;;;;;;;4.90;1.45;;;;;;;;;;5065379;28;20180;-67
2022/08/01 12:24:52;;;;;;;5.60;1.48;;;;;;;;;;5057049;28;20645;-66
2022/08/01 12:27:29;;;;;;;6.95;1.88;;;;;;;;;;5049817;28;20215;-68
2022/08/01 12:29:55;;;;;;;10.27;1.80;;;;;;;;;;5054390;28;20240;-68
2022/08/01 12:32:36;;;;;;;7.65;1.50;;;;;;;;;;5049076;28;20684;-69
2022/08/01 12:35:22;;;;;;;8.48;1.90;;;;;;;;;;5049815;28;20205;-68
2022/08/01 12:37:50;;;;;;;4.30;1.70;;;;;;;;;;5056359;28;20235;-67
2022/08/01 12:40:22;;;;;;;6.65;1.48;;;;;;;;;;5055721;28;20634;-67
2022/08/01 12:42:53;;;;;;;5.25;1.60;;;;;;;;;;5061594;28;20187;-66
2022/08/01 12:45:27;;;;;;;7.60;1.55;;;;;;;;;;5056475;28;20271;-73
2022/08/01 12:47:53;;;;;;;6.30;1.52;;;;;;;;;;5055079;28;20208;-68
2022/08/01 12:50:22;;;;;;;7.43;1.50;;;;;;;;;;5053535;28;20178;-68
2022/08/01 12:52:48;;;;;;;5.95;1.48;;;;;;;;;;5056501;28;20185;-67
2022/08/01 12:55:17;;;;;;;5.45;1.63;;;;;;;;;;5054049;28;20197;-66
2022/08/01 12:57:49;;;;;;;7.72;1.60;;;;;;;;;;5053020;28;20182;-67
2022/08/01 13:00:18;;;;;;;5.20;1.30;;;;;;;;;;5053119;28;20185;-70
2022/08/01 13:02:45;;;;;;;4.20;1.20;;;;;;;;;;5048482;28;20539;-69
2022/08/01 13:05:11;;;;;;;38.80;24.73;;;;;;;;;;5048291;28;20173;-67
2022/08/01 13:07:42;;;;;;;5.45;1.90;;;;;;;;;;5050666;28;20181;-68
2022/08/01 13:10:09;;;;;;;5.53;1.50;;;;;;;;;;5049372;28;20193;-68
2022/08/01 13:12:35;;;;;;;8.55;1.48;;;;;;;;;;5051060;28;20232;-68
2022/08/01 13:15:18;;;;;;;6.35;1.70;;;;;;;;;;5048184;28;20225;-67
2022/08/01 13:17:44;;;;;;;6.78;1.73;;;;;;;;;;5045893;28;20508;-68
2022/08/01 13:20:09;;;;;;;10.93;1.60;;;;;;;;;;5047646;28;20181;-67
2022/08/01 13:22:36;;;;;;;9.07;1.50;;;;;;;;;;5049189;28;20547;-68
2022/08/01 13:25:13;;;;;;;5.32;1.50;;;;;;;;;;5050688;28;20697;-68
2022/08/01 13:27:38;;;;;;;3.22;1.50;;;;;;;;;;5052080;28;20188;-70
2022/08/01 13:30:19;;;;;;;7.30;1.50;;;;;;;;;;5047126;28;20189;-68
2022/08/01 13:32:58;;;;;;;4.75;1.35;;;;;;;;;;5047931;28;20836;-67
2022/08/01 13:35:24;;;;;;;4.50;1.45;;;;;;;;;;5046965;28;20304;-70
2022/08/01 13:37:50;;;;;;;4.15;1.40;;;;;;;;;;5052246;28;20624;-73
2022/08/01 13:40:24;;;;;;;4.05;1.33;;;;;;;;;;5051465;28;20207;-69
2022/08/01 13:42:49;;;;;;;5.97;1.63;;;;;;;;;;5054840;28;20188;-68
2022/08/01 13:45:14;;;;;;;6.82;1.50;;;;;;;;;;5049533;28;20181;-67
2022/08/01 13:47:40;;;;;;;5.50;1.50;;;;;;;;;;5053349;28;20181;-69
2022/08/01 13:50:05;;;;;;;4.07;1.17;;;;;;;;;;5049471;28;20550;-68
2022/08/01 13:52:31;;;;;;;3.58;1.13;;;;;;;;;;5049937;28;20177;-67
2022/08/01 13:54:57;;;;;;;7.40;1.58;;;;;;;;;;5048650;28;20717;-70
2022/08/01 13:57:22;;;;;;;4.13;1.40;;;;;;;;;;5052953;28;20499;-68
2022/08/01 13:59:48;;;;;;;5.63;1.60;;;;;;;;;;5049500;28;20188;-67
2022/08/01 14:02:13;;;;;;;7.80;1.98;;;;;;;;;;5055961;28;20189;-68
2022/08/01 14:04:38;;;;;;;8.68;1.63;;;;;;;;;;5057405;28;20177;-68
2022/08/01 14:07:04;;;;;;;4.35;1.30;;;;;;;;;;5055469;28;20453;-68
2022/08/01 14:09:29;;;;;;;3.38;1.48;;;;;;;;;;5053944;28;20189;-71
2022/08/01 14:11:54;;;;;;;7.15;1.55;;;;;;;;;;5054396;28;20192;-70
2022/08/01 14:14:20;;;;;;;6.18;1.67;;;;;;;;;;5056478;28;20211;-69
2022/08/01 14:16:45;;;;;;;5.68;1.50;;;;;;;;;;5053016;28;20280;-69
2022/08/01 14:19:11;;;;;;;6.13;1.48;;;;;;;;;;5055686;28;20258;-69
2022/08/01 14:21:36;;;;;;;4.80;1.60;;;;;;;;;;5055609;28;20193;-69
2022/08/01 14:24:01;;;;;;;7.90;1.70;;;;;;;;;;5055904;28;20179;-67
2022/08/01 14:26:27;;;;;;;6.00;1.60;;;;;;;;;;5056984;28;20734;-70
2022/08/01 14:28:52;;;;;;;7.10;1.60;;;;;;;;;;5052140;28;20189;-69
2022/08/01 14:31:18;;;;;;;5.53;1.70;;;;;;;;;;5051849;28;20365;-68
2022/08/01 14:33:43;;;;;;;7.55;1.60;;;;;;;;;;5055623;28;20199;-67
2022/08/01 14:36:08;;;;;;;3.90;1.30;;;;;;;;;;5052780;28;20213;-68
2022/08/01 14:38:34;;;;;;;4.70;2.10;;;;;;;;;;5055909;28;20181;-68
2022/08/01 14:40:59;;;;;;;3.97;1.60;;;;;;;;;;5052886;28;20567;-66
2022/08/01 14:43:26;;;;;;;5.38;1.73;;;;;;;;;;5058364;28;20306;-67
2022/08/01 14:45:51;;;;;;;3.72;1.75;;;;;;;;;;5059311;28;20261;-67
2022/08/01 14:48:17;;;;;;;7.47;1.65;;;;;;;;;;5056380;28;20308;-68